Time;durP1;ratioP1;P1;durP2;ratioP2;P2;SDS_P1;SDS_P2;PMS_P1;PMS_P2;Temp;Humidity;BMP_temperature;BMP_pressure;BME280_temperature;BME280_humidity;BME280_pressure;Samples;Min_cycle;Max_cycle;Signal;HPM_P1;HPM_P2
2022/01/30 16:22:02;;;;;;;7.27;2.90;;;3.10;99.90;;;;;;5696086;23;20257;-75
2022/01/30 16:24:32;;;;;;;8.80;3.20;;;3.10;99.90;;;;;;4842984;29;20216;-77
2022/01/30 16:27:01;;;;;;;7.93;2.80;;;3.00;99.90;;;;;;4844664;29;20220;-77
2022/01/30 16:29:29;;;;;;;9.10;3.43;;;3.00;99.90;;;;;;4844804;29;20275;-75
2022/01/30 16:32:02;;;;;;;10.03;3.30;;;3.00;99.90;;;;;;4844769;29;20210;-74
2022/01/30 16:34:32;;;;;;;11.23;3.77;;;2.90;99.90;;;;;;4845578;29;20239;-75
2022/01/30 16:37:02;;;;;;;11.10;3.20;;;2.90;99.90;;;;;;4845121;29;20219;-75
2022/01/30 16:39:30;;;;;;;16.47;4.30;;;2.80;99.90;;;;;;4844672;29;20258;-75
2022/01/30 16:41:58;;;;;;;12.27;3.70;;;2.80;99.90;;;;;;4844719;29;20318;-77
2022/01/30 16:44:31;;;;;;;11.87;5.00;;;2.70;99.90;;;;;;4844493;29;20208;-75
2022/01/30 16:47:14;;;;;;;13.53;5.47;;;2.80;99.90;;;;;;4847709;29;20212;-75
2022/01/30 16:49:42;;;;;;;15.00;6.22;;;2.80;99.90;;;;;;4843604;29;20528;-77
2022/01/30 16:52:12;;;;;;;18.73;7.37;;;2.70;99.90;;;;;;4843723;29;20272;-77
2022/01/30 16:54:40;;;;;;;16.33;6.73;;;2.70;99.90;;;;;;4844745;29;20241;-76
2022/01/30 16:57:09;;;;;;;15.97;7.10;;;2.70;99.90;;;;;;4844225;29;20250;-77
2022/01/30 16:59:37;;;;;;;15.60;7.35;;;2.70;99.90;;;;;;4843287;29;20857;-76
2022/01/30 17:02:06;;;;;;;15.20;6.67;;;2.60;99.90;;;;;;4844230;29;20250;-77
2022/01/30 17:04:34;;;;;;;11.70;5.73;;;2.60;99.90;;;;;;4844296;29;20241;-77
2022/01/30 17:07:02;;;;;;;10.97;5.33;;;2.60;99.90;;;;;;4843524;29;20249;-76
2022/01/30 17:09:36;;;;;;;10.20;3.67;;;2.60;99.90;;;;;;4843397;29;20215;-76
2022/01/30 17:12:17;;;;;;;10.37;3.57;;;2.60;99.90;;;;;;4843318;29;20206;-77
2022/01/30 17:14:49;;;;;;;9.77;3.40;;;2.60;99.90;;;;;;4850670;29;20243;-77
2022/01/30 17:17:18;;;;;;;8.27;2.70;;;2.70;99.90;;;;;;4855358;29;20212;-76
2022/01/30 17:19:48;;;;;;;8.07;3.10;;;2.70;99.90;;;;;;4844763;29;20216;-77
2022/01/30 17:22:16;;;;;;;11.20;3.83;;;2.80;99.90;;;;;;4850563;29;20283;-75
2022/01/30 17:24:51;;;;;;;10.37;3.10;;;2.80;99.90;;;;;;4861293;29;20237;-76
2022/01/30 17:27:19;;;;;;;12.20;3.20;;;2.70;99.90;;;;;;4861553;29;20249;-77
2022/01/30 17:29:48;;;;;;;14.17;3.83;;;2.70;99.90;;;;;;4861108;29;20215;-76
2022/01/30 17:32:17;;;;;;;10.48;4.20;;;2.70;99.90;;;;;;4860823;29;20491;-77
2022/01/30 17:34:47;;;;;;;13.27;3.97;;;2.70;99.90;;;;;;4862294;29;20686;-77
2022/01/30 17:37:15;;;;;;;15.77;5.63;;;2.70;99.90;;;;;;4862277;29;20242;-77
2022/01/30 17:39:43;;;;;;;13.37;6.90;;;2.60;99.90;;;;;;4861615;29;20670;-77
2022/01/30 17:42:15;;;;;;;16.63;7.73;;;2.60;99.90;;;;;;4861384;29;20618;-76
2022/01/30 17:44:43;;;;;;;15.07;6.73;;;2.40;99.90;;;;;;4861349;29;20226;-77
2022/01/30 17:47:11;;;;;;;15.60;7.37;;;2.40;99.90;;;;;;4861309;29;20254;-77
2022/01/30 17:49:40;;;;;;;14.83;6.10;;;2.30;99.90;;;;;;4861511;29;20276;-77
2022/01/30 17:52:08;;;;;;;13.00;5.67;;;2.20;99.90;;;;;;4860957;29;20250;-77
2022/01/30 17:54:37;;;;;;;11.47;5.67;;;2.20;99.90;;;;;;4861636;29;20590;-76
2022/01/30 17:57:07;;;;;;;17.10;5.70;;;2.10;99.90;;;;;;4861547;29;20219;-76
2022/01/30 17:59:36;;;;;;;17.73;6.20;;;2.00;99.90;;;;;;4861632;29;20294;-76
2022/01/30 18:02:05;;;;;;;15.27;5.70;;;2.00;99.90;;;;;;4865680;29;20215;-76
2022/01/30 18:04:33;;;;;;;16.27;6.10;;;1.90;99.90;;;;;;4864527;29;20207;-77
2022/01/30 18:07:02;;;;;;;14.57;5.00;;;1.80;99.90;;;;;;4867321;29;20633;-77
2022/01/30 18:09:30;;;;;;;16.40;4.83;;;1.80;99.90;;;;;;4869149;29;20233;-76
2022/01/30 18:12:03;;;;;;;12.37;4.17;;;1.70;99.90;;;;;;4870317;29;20451;-77
2022/01/30 18:14:31;;;;;;;11.67;5.40;;;1.60;99.90;;;;;;4870550;29;20254;-79
2022/01/30 18:17:00;;;;;;;12.87;5.20;;;1.50;99.90;;;;;;4868026;29;20512;-77
2022/01/30 18:19:29;;;;;;;14.00;6.00;;;1.50;99.90;;;;;;4861357;29;20559;-77
2022/01/30 18:21:57;;;;;;;14.53;5.97;;;1.40;99.90;;;;;;4861111;29;20832;-78
2022/01/30 18:24:25;;;;;;;12.60;5.60;;;1.40;99.90;;;;;;4862655;29;20464;-78
2022/01/30 18:26:53;;;;;;;13.93;5.23;;;1.30;99.90;;;;;;4871360;29;20221;-77
2022/01/30 18:29:22;;;;;;;15.17;5.90;;;1.30;99.90;;;;;;4861303;29;20295;-78
2022/01/30 18:31:53;;;;;;;16.37;6.87;;;1.20;99.90;;;;;;4860640;29;20495;-77
2022/01/30 18:34:23;;;;;;;11.60;6.10;;;1.20;99.90;;;;;;4860747;29;21016;-77
2022/01/30 18:36:56;;;;;;;14.73;6.17;;;1.20;99.90;;;;;;4866098;29;20484;-77
2022/01/30 18:39:31;;;;;;;16.33;6.53;;;1.10;99.90;;;;;;4863026;29;20207;-77
2022/01/30 18:42:01;;;;;;;16.37;5.47;;;1.10;99.90;;;;;;4862193;29;20882;-77
2022/01/30 18:44:29;;;;;;;12.87;4.97;;;1.10;99.90;;;;;;4860946;29;20538;-77
2022/01/30 18:46:57;;;;;;;10.60;4.53;;;1.10;99.90;;;;;;4860969;29;20211;-77
2022/01/30 18:49:27;;;;;;;12.60;5.57;;;1.10;99.90;;;;;;4860682;29;20487;-77
2022/01/30 18:51:55;;;;;;;10.63;4.70;;;1.10;99.90;;;;;;4862663;29;20463;-77
2022/01/30 18:54:24;;;;;;;15.60;5.10;;;1.10;99.90;;;;;;4861238;29;20857;-77
2022/01/30 18:56:53;;;;;;;13.67;5.57;;;1.10;99.90;;;;;;4860340;29;20226;-77
2022/01/30 18:59:22;;;;;;;11.30;5.07;;;1.10;99.90;;;;;;4859981;29;20225;-78
2022/01/30 19:01:50;;;;;;;13.40;5.53;;;1.00;99.90;;;;;;4860073;29;20226;-78
2022/01/30 19:04:18;;;;;;;13.40;5.90;;;1.00;99.90;;;;;;4860561;29;20207;-77
2022/01/30 19:06:50;;;;;;;13.10;6.23;;;1.00;99.90;;;;;;4860446;29;20539;-77
2022/01/30 19:09:19;;;;;;;13.67;5.50;;;0.90;99.90;;;;;;4860268;29;20634;-76
2022/01/30 19:11:47;;;;;;;10.93;5.10;;;0.90;99.90;;;;;;4861250;29;20468;-77
2022/01/30 19:14:16;;;;;;;9.90;5.00;;;0.80;99.90;;;;;;4863548;29;20950;-76
2022/01/30 19:16:44;;;;;;;12.87;5.30;;;0.80;99.90;;;;;;4863547;29;20463;-75
2022/01/30 19:19:13;;;;;;;15.43;5.13;;;0.80;99.90;;;;;;4863780;29;20455;-77
2022/01/30 19:21:41;;;;;;;13.87;5.10;;;0.70;99.90;;;;;;4863199;29;20490;-76
2022/01/30 19:24:12;;;;;;;12.30;5.00;;;0.70;99.90;;;;;;4863853;29;20578;-79
2022/01/30 19:26:40;;;;;;;12.70;5.17;;;0.70;99.90;;;;;;4863519;29;20480;-77
2022/01/30 19:29:09;;;;;;;12.00;4.90;;;0.70;99.90;;;;;;4863539;29;20463;-77
2022/01/30 19:31:37;;;;;;;10.07;4.60;;;0.60;99.90;;;;;;4863803;29;20455;-77
2022/01/30 19:34:05;;;;;;;12.57;4.47;;;0.60;99.90;;;;;;4863966;29;20459;-78
2022/01/30 19:36:33;;;;;;;10.33;4.27;;;0.70;99.90;;;;;;4863407;29;20526;-75
2022/01/30 19:39:02;;;;;;;11.60;4.60;;;0.70;99.90;;;;;;4865582;29;20479;-77
2022/01/30 19:41:33;;;;;;;13.43;4.67;;;0.70;99.90;;;;;;4864815;29;20500;-77
2022/01/30 19:44:03;;;;;;;16.03;5.83;;;0.70;99.90;;;;;;4865279;29;20519;-78
2022/01/30 19:46:32;;;;;;;16.70;6.10;;;0.70;99.90;;;;;;4864634;29;20467;-77
2022/01/30 19:49:00;;;;;;;15.53;5.47;;;0.70;99.90;;;;;;4865549;29;20259;-77
2022/01/30 19:51:33;;;;;;;11.73;4.90;;;0.70;99.90;;;;;;4864231;29;20219;-77
2022/01/30 19:54:01;;;;;;;14.50;5.20;;;0.70;99.90;;;;;;4864367;29;20330;-78
2022/01/30 19:56:33;;;;;;;16.07;5.40;;;0.70;99.90;;;;;;4866362;29;20523;-77
2022/01/30 19:59:02;;;;;;;15.50;5.93;;;0.70;99.90;;;;;;4867382;29;20450;-76
2022/01/30 20:01:30;;;;;;;13.47;5.57;;;0.60;99.90;;;;;;4867489;29;20244;-76
2022/01/30 20:03:58;;;;;;;12.67;5.03;;;0.60;99.90;;;;;;4868655;29;20448;-77
2022/01/30 20:06:28;;;;;;;15.90;5.50;;;0.60;99.90;;;;;;4865815;29;20455;-77
2022/01/30 20:08:57;;;;;;;10.47;5.00;;;0.70;99.90;;;;;;4866311;29;20448;-78
2022/01/30 20:11:25;;;;;;;14.17;4.50;;;0.70;99.90;;;;;;4868519;29;20230;-77
2022/01/30 20:13:56;;;;;;;10.63;3.97;;;0.80;99.90;;;;;;4856900;29;20794;-78
2022/01/30 20:16:25;;;;;;;12.07;4.13;;;0.80;99.90;;;;;;4864651;29;20895;-79
2022/01/30 20:18:53;;;;;;;11.57;3.87;;;0.90;99.90;;;;;;4865581;29;20831;-78
2022/01/30 20:21:25;;;;;;;8.97;3.87;;;0.90;99.90;;;;;;4873941;29;20460;-78
2022/01/30 20:23:54;;;;;;;13.03;3.93;;;0.80;99.90;;;;;;4880210;29;20500;-76
2022/01/30 20:26:23;;;;;;;15.73;4.40;;;0.80;99.90;;;;;;4881271;29;20230;-76
2022/01/30 20:28:51;;;;;;;10.43;3.97;;;0.80;99.90;;;;;;4879924;29;20256;-76
2022/01/30 20:31:20;;;;;;;12.37;4.23;;;0.70;99.90;;;;;;4879842;29;20471;-77
2022/01/30 20:33:55;;;;;;;14.17;4.17;;;0.70;99.90;;;;;;4864358;29;20464;-78
2022/01/30 20:36:24;;;;;;;14.23;5.03;;;0.70;99.90;;;;;;4863878;29;20581;-76
2022/01/30 20:38:52;;;;;;;12.63;4.80;;;0.70;99.90;;;;;;4864155;29;20493;-76
2022/01/30 20:41:20;;;;;;;14.43;5.40;;;0.60;99.90;;;;;;4862978;29;20493;-78
2022/01/30 20:43:48;;;;;;;16.40;8.33;;;0.70;99.90;;;;;;4865234;29;20491;-78
2022/01/30 20:46:17;;;;;;;17.67;7.73;;;0.70;99.90;;;;;;4865257;29;20464;-76
2022/01/30 20:48:48;;;;;;;10.53;4.97;;;0.70;99.90;;;;;;4863517;29;20523;-76
2022/01/30 20:51:17;;;;;;;14.67;7.07;;;0.70;99.90;;;;;;4863355;29;20520;-76
2022/01/30 20:53:45;;;;;;;17.00;6.23;;;0.70;99.90;;;;;;4863176;29;20606;-80
2022/01/30 20:56:15;;;;;;;15.23;7.50;;;0.70;99.90;;;;;;4865025;29;20505;-78
2022/01/30 20:58:44;;;;;;;16.47;7.10;;;0.70;99.90;;;;;;4863594;29;20226;-77
2022/01/30 21:01:13;;;;;;;19.90;12.67;;;0.70;99.90;;;;;;4868419;29;20508;-76
2022/01/30 21:03:42;;;;;;;15.73;6.93;;;0.80;99.90;;;;;;4876112;29;20516;-75
2022/01/30 21:06:12;;;;;;;14.87;6.03;;;0.80;99.90;;;;;;4875664;29;20556;-75
2022/01/30 21:08:41;;;;;;;13.60;5.83;;;0.90;99.90;;;;;;4876800;29;20471;-76
2022/01/30 21:11:14;;;;;;;16.13;6.77;;;0.90;99.90;;;;;;4868812;29;20452;-78
2022/01/30 21:13:48;;;;;;;14.40;5.90;;;0.90;99.90;;;;;;4863977;29;20456;-77
2022/01/30 21:16:18;;;;;;;18.23;6.30;;;0.90;99.90;;;;;;4863523;29;20480;-75
2022/01/30 21:18:47;;;;;;;13.43;6.20;;;0.80;99.90;;;;;;4863771;29;20215;-77
2022/01/30 21:21:17;;;;;;;14.87;6.40;;;0.80;99.90;;;;;;4863285;29;20975;-77
2022/01/30 21:23:45;;;;;;;13.87;5.40;;;0.80;99.90;;;;;;4864018;29;20463;-80
2022/01/30 21:26:14;;;;;;;12.10;4.37;;;0.70;99.90;;;;;;4867887;29;20600;-79
2022/01/30 21:28:43;;;;;;;12.00;5.03;;;0.70;99.90;;;;;;4865674;29;20202;-78
2022/01/30 21:31:12;;;;;;;14.60;4.37;;;0.60;99.90;;;;;;4866347;29;20462;-78
2022/01/30 21:33:46;;;;;;;12.00;4.97;;;0.60;99.90;;;;;;4865978;29;21029;-79
2022/01/30 21:36:15;;;;;;;12.47;5.10;;;0.70;99.90;;;;;;4865157;29;20514;-77
2022/01/30 21:38:44;;;;;;;14.90;4.73;;;0.80;99.90;;;;;;4865564;29;20455;-77
2022/01/30 21:41:24;;;;;;;16.23;5.20;;;0.90;99.90;;;;;;4863391;29;20491;-77
2022/01/30 21:43:58;;;;;;;14.17;5.17;;;0.90;99.90;;;;;;4863984;29;20997;-76
2022/01/30 21:46:27;;;;;;;13.27;5.13;;;1.00;99.90;;;;;;4864004;29;20932;-75
2022/01/30 21:48:56;;;;;;;15.10;5.03;;;1.10;99.90;;;;;;4863898;29;20986;-77
2022/01/30 21:51:24;;;;;;;12.80;4.73;;;1.10;99.90;;;;;;4861235;29;20444;-77
2022/01/30 21:53:54;;;;;;;16.63;4.93;;;1.10;99.90;;;;;;4861610;29;20237;-77
2022/01/30 21:56:23;;;;;;;12.77;4.30;;;1.10;99.90;;;;;;4861992;29;20238;-77
2022/01/30 21:58:53;;;;;;;14.03;5.50;;;1.20;99.90;;;;;;4863432;29;20230;-77
2022/01/30 22:01:21;;;;;;;13.07;4.70;;;1.20;99.90;;;;;;4860669;29;20492;-78
2022/01/30 22:03:50;;;;;;;11.77;4.57;;;1.20;99.90;;;;;;4861838;29;20466;-76
2022/01/30 22:06:18;;;;;;;14.37;5.70;;;1.20;99.90;;;;;;4862057;29;20799;-76
2022/01/30 22:08:47;;;;;;;15.87;5.47;;;1.30;99.90;;;;;;4860939;29;20673;-76
2022/01/30 22:11:17;;;;;;;12.20;4.73;;;1.30;99.90;;;;;;4861332;29;20210;-78
2022/01/30 22:13:49;;;;;;;13.40;4.87;;;1.30;99.90;;;;;;4861610;29;20464;-79
2022/01/30 22:16:17;;;;;;;12.50;4.60;;;1.30;99.90;;;;;;4861442;29;20575;-76
2022/01/30 22:18:46;;;;;;;13.30;4.47;;;1.30;99.90;;;;;;4861589;29;20214;-78
2022/01/30 22:21:15;;;;;;;9.70;3.33;;;1.30;99.90;;;;;;4864230;29;20218;-80
2022/01/30 22:23:43;;;;;;;12.70;4.37;;;1.30;99.90;;;;;;4862847;29;20482;-77
2022/01/30 22:26:11;;;;;;;10.63;3.97;;;1.30;99.90;;;;;;4863174;29;20954;-77
2022/01/30 22:28:42;;;;;;;9.00;3.83;;;1.30;99.90;;;;;;4861142;29;20293;-79
2022/01/30 22:31:10;;;;;;;12.13;4.10;;;1.30;99.90;;;;;;4861335;29;20574;-76
2022/01/30 22:33:39;;;;;;;11.07;3.80;;;1.20;99.90;;;;;;4861439;29;20294;-79
2022/01/30 22:36:07;;;;;;;13.80;4.40;;;1.30;99.90;;;;;;4860413;29;20211;-78
2022/01/30 22:38:35;;;;;;;15.50;4.17;;;1.30;99.90;;;;;;4860780;29;20658;-78
2022/01/30 22:41:04;;;;;;;15.53;4.67;;;1.30;99.90;;;;;;4864606;29;20246;-77
2022/01/30 22:43:32;;;;;;;10.20;3.93;;;1.40;99.90;;;;;;4865258;29;20670;-78
2022/01/30 22:46:03;;;;;;;12.83;4.47;;;1.30;99.90;;;;;;4861159;29;20695;-79
2022/01/30 22:48:31;;;;;;;10.40;4.07;;;1.30;99.90;;;;;;4864634;29;20325;-79
2022/01/30 22:50:59;;;;;;;10.67;4.03;;;1.20;99.90;;;;;;4864020;29;20623;-78
2022/01/30 22:53:27;;;;;;;13.27;4.33;;;1.20;99.90;;;;;;4864758;29;20987;-79
2022/01/30 22:55:55;;;;;;;15.13;4.80;;;1.10;99.90;;;;;;4865079;29;20467;-76
2022/01/30 22:58:23;;;;;;;9.20;3.63;;;1.00;99.90;;;;;;4864667;29;20582;-79
2022/01/30 23:00:51;;;;;;;9.93;4.40;;;0.90;99.90;;;;;;4872465;29;20788;-77
2022/01/30 23:03:21;;;;;;;11.83;4.20;;;0.90;99.90;;;;;;4869389;29;20244;-78
2022/01/30 23:05:50;;;;;;;11.17;3.97;;;0.80;99.90;;;;;;4868152;29;20546;-78
2022/01/30 23:08:18;;;;;;;12.60;4.27;;;0.70;99.90;;;;;;4868837;29;20520;-77
2022/01/30 23:10:47;;;;;;;12.83;4.50;;;0.60;99.90;;;;;;4866822;29;20933;-79
2022/01/30 23:13:15;;;;;;;12.00;4.90;;;0.50;99.90;;;;;;4867644;29;21045;-81
2022/01/30 23:15:43;;;;;;;14.20;5.30;;;0.60;99.90;;;;;;4866803;29;20858;-78
2022/01/30 23:18:12;;;;;;;14.40;4.53;;;0.50;99.90;;;;;;4865342;29;20499;-79
2022/01/30 23:20:41;;;;;;;10.23;4.40;;;0.50;99.90;;;;;;4864379;29;20532;-76
2022/01/30 23:23:10;;;;;;;13.27;4.20;;;0.50;99.90;;;;;;4864924;29;20535;-77
2022/01/30 23:25:38;;;;;;;11.40;3.97;;;0.40;99.90;;;;;;4864007;29;20698;-79
2022/01/30 23:28:07;;;;;;;14.23;4.30;;;0.40;99.90;;;;;;4864688;29;20491;-80
2022/01/30 23:30:35;;;;;;;10.83;4.13;;;0.30;99.90;;;;;;4863200;29;20502;-78
2022/01/30 23:33:03;;;;;;;9.57;4.30;;;0.30;99.90;;;;;;4863874;29;20543;-78
2022/01/30 23:35:32;;;;;;;15.10;4.53;;;0.20;99.90;;;;;;4864130;29;20558;-80
2022/01/30 23:38:02;;;;;;;14.43;4.23;;;0.20;99.90;;;;;;4864349;29;20319;-81
2022/01/30 23:40:30;;;;;;;12.33;4.30;;;0.20;99.90;;;;;;4863730;29;20543;-77
2022/01/30 23:42:58;;;;;;;14.40;5.17;;;0.20;99.90;;;;;;4863791;29;20460;-77
2022/01/30 23:45:26;;;;;;;14.87;4.83;;;0.20;99.90;;;;;;4864784;29;20455;-79
2022/01/30 23:47:55;;;;;;;9.83;4.10;;;0.20;99.90;;;;;;4864121;29;20570;-77
2022/01/30 23:50:24;;;;;;;14.23;4.30;;;0.20;99.90;;;;;;4865825;29;20460;-76
2022/01/30 23:52:52;;;;;;;11.30;4.33;;;0.10;99.90;;;;;;4863976;29;20506;-77
2022/01/30 23:55:22;;;;;;;12.30;4.57;;;0.10;99.90;;;;;;4863041;29;20553;-77
2022/01/30 23:57:51;;;;;;;16.67;4.63;;;0.10;99.90;;;;;;4863188;29;20495;-76
